Frenchville, ME

4:20 AM EST on February 23, 2017 (GMT -0500)
K1FTK | | Change Station
Active Advisory: Special Statement

Elev 825 ft 47.25 °N, 68.35 °W | Updated 9 minutes ago

Mostly Cloudy
Mostly Cloudy
24.0 °F
Feels Like 24 °F
N
0.0
Wind Variable Wind from SW
Gusts 0.0 mph

Today
High -- | Low -- °F
--% Chance of Precip.
Yesterday
High -- | Low -- °F
Precip. -- in
Pressure 29.79 in
Visibility 10.0 miles
Clouds Clear
Windchill 24 °F
Dew Point 22 °F
Humidity 94%
Rainfall 0.00 in
Snow Depth Not available.
6:24 AM 5:10 PM
Waning Crescent, 11% visible
METAR KFVE 230853Z AUTO 14007KT 10SM CLR M03/M04 A2976 RMK AO2 SLP087 T10281044 58011
Pressure 29.79 in
Visibility 10.0 miles
Clouds Clear
Windchill 24 °F
Dew Point 22 °F
Humidity 94%
Rainfall 0.00 in
Snow Depth Not available.
6:24 AM 5:10 PM
Waning Crescent, 11% visible
METAR KFVE 230853Z AUTO 14007KT 10SM CLR M03/M04 A2976 RMK AO2 SLP087 T10281044 58011

Get Your Daily Forecast Email!

Thanks for signing up!

Be on the lookout for a verification email in your inbox.

You'll start receiving the daily forecast at 8 AM.

×

10-Day Weather Forecast

Almanac

Astronomy

Feb. 23, 2017 Rise Set
Actual Time
Civil Twilight
Nautical Twilight
Astronomical Twilight
Moon
Length of Visible Light
Length of Day
Tomorrow will be .
, % of the Moon is Illuminated

Today's Extremes

State Highs State Lows

Community

WunderPhotos

Upload Photos

1,962,540 photos uploaded!

WunderBlog® & News

Nearby

Air Quality

  Air Quality AQ Index Pollutant
Not available.

Snow Depth

Station Depth Elevation

Earthquake Activity

City Distance Mag. Time & Date
Minimum magnitude displayed is 2.5.

Coastal Water Temperatures

Place Temperature

Stations

Nearby Weather Stations

Station Location Temp. Windchill Dew Point Humidity Wind Precip. Elev Updated Type
                   

Watches & Warnings

Special Statement
Issued: 2:44 AM EST Feb. 23, 2017 – National Weather Service

... Some icy spot on roads can be expected this morning...

Patchy fog with temperatures well below freezing this morning
will lead to icy spots on roads through the morning commute.

Motorists and pedestrians are advised to take extra caution due
to slippery conditions on roadways and sidewalks.


Hewitt


244 am EST Thu Feb 23 2017

... Some icy spot on roads can be expected this morning...

Patchy fog with temperatures well below freezing this morning
will lead to icy spots on roads through the morning commute.

Motorists and pedestrians are advised to take extra caution due
to slippery conditions on roadways and sidewalks.


Hewitt